Time;durP1;ratioP1;P1;durP2;ratioP2;P2;SDS_P1;SDS_P2;PMS_P1;PMS_P2;Temp;Humidity;BMP_temperature;BMP_pressure;BME280_temperature;BME280_humidity;BME280_pressure;Samples;Min_cycle;Max_cycle;Signal;HPM_P1;HPM_P2
2024/02/01 00:00:19;;;;;;;0.50;0.50;;;;;;;7.65;91.28;97996.87;29395;210;63008;-66
2024/02/01 00:00:50;;;;;;;0.50;0.50;;;;;;;7.63;91.17;98001.69;29395;241;63005;-64
2024/02/01 00:01:23;;;;;;;0.50;0.50;;;;;;;7.63;91.38;98005.22;29395;222;63009;-65
2024/02/01 00:01:57;;;;;;;0.50;0.50;;;;;;;7.63;91.51;98009.81;29395;212;63006;-66
2024/02/01 00:02:29;;;;;;;0.50;0.50;;;;;;;7.62;91.66;98011.69;29395;206;63028;-65
2024/02/01 00:03:00;;;;;;;0.50;0.50;;;;;;;7.63;91.47;98007.09;29395;212;63005;-65
2024/02/01 00:03:32;;;;;;;0.50;0.50;;;;;;;7.64;91.61;98008.75;29395;250;63009;-66
2024/02/01 00:04:03;;;;;;;0.50;0.50;;;;;;;7.64;91.30;98009.56;29395;197;63005;-65
2024/02/01 00:04:35;;;;;;;0.50;0.50;;;;;;;7.64;91.82;98014.16;29395;327;63009;-65
2024/02/01 00:05:08;;;;;;;0.50;0.50;;;;;;;7.63;91.69;98007.09;29394;199;64004;-65
2024/02/01 00:05:39;;;;;;;0.50;0.50;;;;;;;7.62;91.56;98010.91;29395;197;63009;-65
2024/02/01 00:06:11;;;;;;;0.50;0.50;;;;;;;7.61;91.82;98012.78;29395;235;63000;-64
2024/02/01 00:06:50;;;;;;;0.60;0.60;;;;;;;7.61;91.94;98009.25;29395;241;63009;-65
2024/02/01 00:07:21;;;;;;;0.50;0.50;;;;;;;7.59;92.07;98014.09;29395;258;63010;-65
2024/02/01 00:07:55;;;;;;;0.57;0.57;;;;;;;7.60;92.03;98007.62;29395;251;63014;-66
2024/02/01 00:08:27;;;;;;;0.57;0.57;;;;;;;7.60;91.74;98007.62;29395;218;63005;-64
2024/02/01 00:08:59;;;;;;;0.50;0.50;;;;;;;7.64;91.44;98012.25;29395;256;63009;-63
2024/02/01 00:09:31;;;;;;;0.50;0.50;;;;;;;7.67;90.96;98010.94;29395;277;63005;-64
2024/02/01 00:10:03;;;;;;;0.50;0.50;;;;;;;7.67;90.78;98006.38;29395;232;63009;-63
2024/02/01 00:10:34;;;;;;;0.50;0.50;;;;;;;7.69;90.93;98008.81;29394;218;64005;-66
2024/02/01 00:11:05;;;;;;;0.50;0.50;;;;;;;7.69;90.73;98006.13;29395;234;63009;-64
2024/02/01 00:11:37;;;;;;;0.50;0.50;;;;;;;7.70;90.64;98007.75;29395;227;63010;-65
2024/02/01 00:12:08;;;;;;;0.50;0.50;;;;;;;7.72;90.37;98005.63;29395;245;63009;-65
2024/02/01 00:12:40;;;;;;;0.50;0.50;;;;;;;7.74;90.17;98003.50;29395;245;63004;-65
2024/02/01 00:13:11;;;;;;;0.55;0.55;;;;;;;7.75;90.32;98005.13;29395;219;63009;-66
2024/02/01 00:13:42;;;;;;;0.50;0.50;;;;;;;7.74;89.99;98008.91;29395;229;63004;-64
2024/02/01 00:14:13;;;;;;;0.50;0.50;;;;;;;7.73;89.78;98007.28;29395;232;63009;-65
2024/02/01 00:14:45;;;;;;;0.50;0.50;;;;;;;7.72;89.77;98006.44;29395;214;63004;-65
2024/02/01 00:15:16;;;;;;;0.50;0.50;;;;;;;7.73;90.12;98002.69;29395;246;63009;-64
2024/02/01 00:15:48;;;;;;;0.50;0.50;;;;;;;7.74;89.65;98003.50;29394;250;64005;-64
2024/02/01 00:16:22;;;;;;;0.50;0.50;;;;;;;7.75;89.47;98005.13;29395;251;63009;-65
2024/02/01 00:16:53;;;;;;;0.60;0.60;;;;;;;7.76;89.68;98006.78;29395;218;63005;-63
2024/02/01 00:17:25;;;;;;;0.50;0.50;;;;;;;7.76;89.29;98004.06;29394;197;64009;-64
2024/02/01 00:17:56;;;;;;;0.50;0.50;;;;;;;7.77;89.52;98003.00;29395;200;63005;-64
2024/02/01 00:18:27;;;;;;;0.50;0.50;;;;;;;7.77;89.40;98008.41;29395;207;63009;-65
2024/02/01 00:18:58;;;;;;;0.90;0.90;;;;;;;7.76;89.37;98001.38;29395;237;63007;-66
2024/02/01 00:19:30;;;;;;;0.50;0.50;;;;;;;7.76;89.54;98001.38;29395;243;63009;-66
2024/02/01 00:20:02;;;;;;;0.50;0.50;;;;;;;7.76;89.42;98001.38;29395;249;63004;-67
2024/02/01 00:20:33;;;;;;;0.50;0.50;;;;;;;7.77;89.55;97996.78;29395;244;63009;-66
2024/02/01 00:21:16;;;;;;;0.50;0.50;;;;;;;7.78;89.41;97999.25;29416;238;64005;-66
2024/02/01 00:21:49;;;;;;;0.50;0.50;;;;;;;7.78;89.32;98001.12;29394;225;64009;-66
2024/02/01 00:22:21;;;;;;;0.50;0.50;;;;;;;7.78;89.29;98004.66;29395;196;63004;-64
2024/02/01 00:22:52;;;;;;;0.50;0.50;;;;;;;7.77;89.61;98005.72;29395;203;63009;-65
2024/02/01 00:23:23;;;;;;;0.50;0.50;;;;;;;7.78;89.23;97998.44;29395;271;63005;-64
2024/02/01 00:23:54;;;;;;;0.50;0.50;;;;;;;7.78;89.58;98001.94;29395;225;63009;-63
2024/02/01 00:24:26;;;;;;;0.50;0.50;;;;;;;7.78;89.34;98001.94;29395;243;63007;-65
2024/02/01 00:25:01;;;;;;;0.50;0.50;;;;;;;7.77;89.43;97996.78;29395;234;63009;-63
2024/02/01 00:25:32;;;;;;;0.60;0.60;;;;;;;7.79;89.20;98000.06;29395;229;63005;-63
2024/02/01 00:26:05;;;;;;;0.50;0.50;;;;;;;7.80;89.04;97999.81;29395;219;63009;-66
2024/02/01 00:26:36;;;;;;;0.50;0.50;;;;;;;7.80;88.28;97997.13;29395;206;63005;-65
2024/02/01 00:27:07;;;;;;;0.50;0.50;;;;;;;7.80;88.37;98002.53;29394;198;64009;-65
2024/02/01 00:27:42;;;;;;;0.50;0.50;;;;;;;7.80;88.40;97999.81;29395;256;63004;-62
2024/02/01 00:28:16;;;;;;;0.50;0.50;;;;;;;7.79;88.63;98000.88;29395;228;63009;-65
2024/02/01 00:28:47;;;;;;;0.50;0.50;;;;;;;7.80;88.61;97996.28;29395;216;63004;-63
2024/02/01 00:29:19;;;;;;;0.50;0.50;;;;;;;7.81;88.45;97993.34;29395;223;63009;-64
2024/02/01 00:29:53;;;;;;;0.50;0.50;;;;;;;7.84;88.06;97992.03;29395;204;63008;-64
2024/02/01 00:30:25;;;;;;;0.50;0.50;;;;;;;7.86;87.56;97996.13;29395;232;63009;-64
2024/02/01 00:30:57;;;;;;;0.50;0.50;;;;;;;7.86;87.64;97995.31;29395;228;63005;-63
2024/02/01 00:31:28;;;;;;;0.50;0.50;;;;;;;7.85;88.04;97994.50;29395;220;63009;-64
2024/02/01 00:32:00;;;;;;;0.50;0.50;;;;;;;7.86;87.73;97989.91;29395;243;63018;-56
2024/02/01 00:32:34;;;;;;;0.52;0.52;;;;;;;7.85;87.75;97989.09;29394;222;64009;-64
2024/02/01 00:33:08;;;;;;;0.70;0.70;;;;;;;7.85;87.69;97993.66;29395;229;63009;-63
2024/02/01 00:33:41;;;;;;;0.50;0.50;;;;;;;7.84;88.03;97992.03;29395;239;63009;-65
2024/02/01 00:34:12;;;;;;;0.50;0.50;;;;;;;7.83;87.88;97996.63;29395;198;63005;-64
2024/02/01 00:34:44;;;;;;;0.50;0.50;;;;;;;7.82;88.20;97989.59;29395;214;63009;-66
2024/02/01 00:35:16;;;;;;;0.60;0.60;;;;;;;7.81;88.10;97987.94;29395;220;63011;-65
2024/02/01 00:35:50;;;;;;;0.50;0.50;;;;;;;7.81;88.23;97987.94;29395;221;63009;-64
2024/02/01 00:36:22;;;;;;;0.50;0.50;;;;;;;7.80;88.42;97988.19;29394;212;64004;-65
2024/02/01 00:36:55;;;;;;;0.50;0.50;;;;;;;7.80;88.33;97988.19;29394;202;64009;-64
2024/02/01 00:37:26;;;;;;;0.55;0.55;;;;;;;7.79;88.37;97989.25;29395;223;63004;-63
2024/02/01 00:37:57;;;;;;;0.50;0.50;;;;;;;7.78;88.47;97987.63;29395;210;63009;-64
2024/02/01 00:38:28;;;;;;;0.50;0.50;;;;;;;7.77;88.57;97986.81;29395;252;63005;-55
2024/02/01 00:39:05;;;;;;;0.50;0.50;;;;;;;7.76;88.80;97985.16;29395;197;63009;-64
2024/02/01 00:39:36;;;;;;;0.60;0.60;;;;;;;7.76;88.72;97984.34;29395;213;63005;-63
2024/02/01 00:40:09;;;;;;;0.50;0.50;;;;;;;7.74;88.97;97982.72;29395;218;63009;-65
2024/02/01 00:40:41;;;;;;;0.50;0.50;;;;;;;7.74;88.88;97987.28;29395;207;63011;-63
2024/02/01 00:41:13;;;;;;;0.50;0.50;;;;;;;7.73;89.27;97985.66;29395;237;63009;-56
2024/02/01 00:41:44;;;;;;;0.60;0.60;;;;;;;7.71;89.29;97983.19;29395;248;63005;-66
2024/02/01 00:42:18;;;;;;;0.50;0.50;;;;;;;7.70;89.63;97988.84;29394;222;64009;-66
2024/02/01 00:42:53;;;;;;;0.60;0.60;;;;;;;7.68;89.63;97989.09;29395;197;63004;-64
2024/02/01 00:43:24;;;;;;;0.50;0.50;;;;;;;7.67;90.01;97987.47;29395;206;63009;-63
2024/02/01 00:43:55;;;;;;;0.50;0.50;;;;;;;7.66;90.18;97985.81;29395;230;63004;-65
2024/02/01 00:44:27;;;;;;;0.50;0.50;;;;;;;7.66;89.92;97985.81;29395;228;63009;-65
2024/02/01 00:44:59;;;;;;;0.50;0.50;;;;;;;7.65;90.51;97981.47;29395;202;63004;-56
2024/02/01 00:45:33;;;;;;;0.50;0.50;;;;;;;7.66;90.52;97985.00;29395;233;63009;-65
2024/02/01 00:46:04;;;;;;;0.50;0.50;;;;;;;7.64;90.57;97989.84;29395;205;63005;-55
2024/02/01 00:46:38;;;;;;;0.50;0.50;;;;;;;7.63;90.88;97989.00;29395;197;63005;-64
2024/02/01 00:47:11;;;;;;;0.50;0.50;;;;;;;7.62;90.81;97984.69;29395;205;63005;-66
2024/02/01 00:47:48;;;;;;;0.50;0.50;;;;;;;7.62;90.63;97995.47;29394;227;64009;-63
2024/02/01 00:48:19;;;;;;;0.50;0.50;;;;;;;7.61;90.89;97993.88;29395;216;63005;-66
2024/02/01 00:48:50;;;;;;;0.50;0.50;;;;;;;7.60;91.31;97994.13;29395;214;63017;-66
2024/02/01 00:49:23;;;;;;;0.50;0.50;;;;;;;7.60;91.08;97996.81;29395;199;63005;-66
2024/02/01 00:49:55;;;;;;;0.50;0.50;;;;;;;7.59;91.18;97995.19;29394;243;64009;-65
2024/02/01 00:50:26;;;;;;;0.60;0.60;;;;;;;7.59;91.63;97989.78;29395;227;63000;-65
2024/02/01 00:50:57;;;;;;;0.60;0.60;;;;;;;7.57;91.84;97997.31;29395;263;63009;-65
2024/02/01 00:51:29;;;;;;;0.50;0.50;;;;;;;7.55;91.88;97991.34;29395;196;63004;-66
2024/02/01 00:52:00;;;;;;;0.50;0.50;;;;;;;7.54;92.50;97992.41;29395;227;63009;-64
2024/02/01 00:52:32;;;;;;;0.50;0.50;;;;;;;7.53;92.10;97982.66;29395;242;63004;-58
2024/02/01 00:53:03;;;;;;;0.50;0.50;;;;;;;7.53;92.53;97996.16;29395;211;63009;-66
2024/02/01 00:53:35;;;;;;;0.50;0.50;;;;;;;7.51;92.54;97993.72;29395;225;63005;-55
2024/02/01 00:54:06;;;;;;;0.60;0.60;;;;;;;7.50;92.63;97993.97;29395;213;63009;-65
2024/02/01 00:54:38;;;;;;;0.50;0.50;;;;;;;7.48;92.72;97986.09;29395;199;63005;-56
2024/02/01 00:55:09;;;;;;;0.60;0.60;;;;;;;7.46;92.88;97985.53;29394;197;64009;-64
2024/02/01 00:55:41;;;;;;;0.50;0.50;;;;;;;7.46;92.79;97995.50;29395;218;63012;-63
2024/02/01 00:56:12;;;;;;;0.50;0.50;;;;;;;7.46;92.90;97985.53;29395;261;63009;-65
2024/02/01 00:56:43;;;;;;;0.50;0.50;;;;;;;7.46;93.19;97984.72;29395;232;63005;-65
2024/02/01 00:57:14;;;;;;;0.50;0.50;;;;;;;7.46;93.20;97984.72;29395;209;63009;-56
2024/02/01 00:57:46;;;;;;;0.50;0.50;;;;;;;7.45;93.03;97993.88;29395;232;63004;-63
2024/02/01 00:58:17;;;;;;;0.60;0.60;;;;;;;7.44;93.75;97992.22;29395;277;63009;-67
2024/02/01 00:58:48;;;;;;;0.50;0.50;;;;;;;7.42;93.41;97988.97;29395;197;63004;-66
2024/02/01 00:59:27;;;;;;;0.60;0.60;;;;;;;7.44;93.41;97986.84;29394;227;64009;-56
2024/02/01 00:59:59;;;;;;;0.70;0.70;;;;;;;7.44;93.74;97982.25;29395;234;63004;-56
2024/02/01 01:00:31;;;;;;;0.57;0.57;;;;;;;7.43;93.64;97980.59;29394;261;64009;-56
2024/02/01 01:01:04;;;;;;;0.50;0.50;;;;;;;7.43;93.90;97982.50;29395;209;63005;-56
2024/02/01 01:01:37;;;;;;;0.57;0.57;;;;;;;7.42;94.12;97981.69;29395;246;63009;-65
2024/02/01 01:02:08;;;;;;;0.50;0.50;;;;;;;7.39;94.83;97980.28;29395;271;63005;-65
2024/02/01 01:02:39;;;;;;;0.60;0.60;;;;;;;7.38;94.88;97977.81;29395;202;63009;-67
2024/02/01 01:03:10;;;;;;;0.70;0.70;;;;;;;7.38;94.77;97973.25;29395;221;63009;-57
2024/02/01 01:03:42;;;;;;;0.60;0.60;;;;;;;7.38;94.59;97973.25;29395;206;63009;-64
2024/02/01 01:04:16;;;;;;;0.50;0.50;;;;;;;7.39;94.20;97971.38;29395;248;63005;-64
2024/02/01 01:04:48;;;;;;;0.50;0.50;;;;;;;7.38;94.41;97975.94;29395;258;63009;-64
2024/02/01 01:05:20;;;;;;;0.50;0.50;;;;;;;7.38;94.15;97983.22;29395;232;63004;-66
2024/02/01 01:06:02;;;;;;;0.50;0.50;;;;;;;7.36;94.03;97975.38;29394;211;64009;-65
2024/02/01 01:06:34;;;;;;;0.60;0.60;;;;;;;7.37;94.14;97971.59;29395;209;63004;-56
2024/02/01 01:07:06;;;;;;;0.50;0.50;;;;;;;7.36;94.34;97975.38;29395;219;63009;-66
2024/02/01 01:07:37;;;;;;;0.50;0.50;;;;;;;7.37;94.43;97979.72;29395;241;63004;-64
2024/02/01 01:08:08;;;;;;;0.50;0.50;;;;;;;7.36;94.63;97972.66;29395;203;63009;-63
2024/02/01 01:08:43;;;;;;;0.50;0.50;;;;;;;7.35;94.29;97972.91;29395;207;63005;-65
2024/02/01 01:09:14;;;;;;;0.50;0.50;;;;;;;7.34;94.68;97985.59;29395;214;63009;-56
2024/02/01 01:09:45;;;;;;;0.50;0.50;;;;;;;7.32;94.41;97974.22;29395;213;63005;-65
2024/02/01 01:10:17;;;;;;;0.50;0.50;;;;;;;7.34;94.52;97977.50;29395;200;63009;-63
2024/02/01 01:10:50;;;;;;;0.50;0.50;;;;;;;7.34;95.20;97980.19;29395;206;63005;-56
2024/02/01 01:11:25;;;;;;;0.50;0.50;;;;;;;7.34;94.74;97982.06;29394;300;64009;-68
2024/02/01 01:11:57;;;;;;;0.50;0.50;;;;;;;7.33;94.59;97978.56;29395;220;63004;-57
2024/02/01 01:12:32;;;;;;;0.60;0.60;;;;;;;7.33;95.03;97975.84;29395;204;63020;-62
2024/02/01 01:13:04;;;;;;;0.50;0.50;;;;;;;7.31;94.63;97972.59;29395;249;63004;-64
2024/02/01 01:13:35;;;;;;;0.50;0.50;;;;;;;7.31;94.61;97982.56;29395;243;63009;-63
2024/02/01 01:14:07;;;;;;;0.50;0.50;;;;;;;7.31;94.70;97979.88;29395;210;63004;-62
2024/02/01 01:14:38;;;;;;;0.50;0.50;;;;;;;7.31;95.04;97977.16;29395;338;63008;-63
2024/02/01 01:15:10;;;;;;;0.50;0.50;;;;;;;7.31;94.92;97980.69;29395;201;63004;-65
2024/02/01 01:15:42;;;;;;;0.50;0.50;;;;;;;7.30;95.08;97979.03;29395;270;63009;-65
2024/02/01 01:16:13;;;;;;;0.57;0.57;;;;;;;7.30;95.16;97981.75;29395;228;63010;-61
2024/02/01 01:16:45;;;;;;;0.50;0.50;;;;;;;7.30;95.02;97976.34;29394;208;64009;-64
2024/02/01 01:17:16;;;;;;;0.50;0.50;;;;;;;7.30;95.44;97980.94;29395;247;63005;-64
2024/02/01 01:17:47;;;;;;;0.50;0.50;;;;;;;7.28;96.07;97978.47;29395;225;63009;-66
2024/02/01 01:18:20;;;;;;;0.50;0.50;;;;;;;7.27;95.56;97979.56;29395;202;63005;-65
2024/02/01 01:18:51;;;;;;;0.60;0.60;;;;;;;7.27;95.83;97987.66;29395;277;63009;-66
2024/02/01 01:19:22;;;;;;;0.50;0.50;;;;;;;7.27;95.99;97984.97;29395;238;63004;-65
2024/02/01 01:19:55;;;;;;;0.50;0.50;;;;;;;7.26;96.20;97991.44;29395;199;63009;-64
2024/02/01 01:20:26;;;;;;;0.50;0.50;;;;;;;7.26;95.79;97991.44;29395;200;63004;-64
2024/02/01 01:20:58;;;;;;;0.50;0.50;;;;;;;7.26;96.12;97991.44;29395;249;63009;-66
2024/02/01 01:21:29;;;;;;;0.50;0.50;;;;;;;7.26;95.89;97996.81;29395;248;63004;-65
2024/02/01 01:22:03;;;;;;;0.50;0.50;;;;;;;7.27;95.77;97997.66;29394;223;64008;-63
2024/02/01 01:22:34;;;;;;;0.60;0.60;;;;;;;7.27;95.79;97998.47;29395;299;63005;-65
2024/02/01 01:23:05;;;;;;;0.50;0.50;;;;;;;7.27;95.97;98003.84;29395;211;63020;-57
2024/02/01 01:23:37;;;;;;;0.50;0.50;;;;;;;7.28;95.66;98008.16;29395;230;63005;-66
2024/02/01 01:24:08;;;;;;;0.50;0.50;;;;;;;7.27;95.96;98003.84;29395;276;63009;-65
2024/02/01 01:24:40;;;;;;;0.50;0.50;;;;;;;7.27;96.18;98003.84;29395;276;63005;-66
2024/02/01 01:25:11;;;;;;;0.50;0.50;;;;;;;7.24;97.04;98000.81;29395;199;63009;-64
2024/02/01 01:25:44;;;;;;;0.50;0.50;;;;;;;7.22;97.31;98000.25;29394;203;64005;-57
2024/02/01 01:26:24;;;;;;;0.60;0.60;;;;;;;7.21;97.34;98004.84;29395;215;63009;-65
2024/02/01 01:26:56;;;;;;;0.60;0.60;;;;;;;7.19;96.73;98001.56;29417;215;63004;-66
2024/02/01 01:27:27;;;;;;;0.50;0.50;;;;;;;7.20;96.68;98002.38;29395;227;63009;-63
2024/02/01 01:27:58;;;;;;;0.50;0.50;;;;;;;7.21;97.05;98006.72;29395;232;63004;-67
2024/02/01 01:28:29;;;;;;;0.60;0.60;;;;;;;7.20;96.78;97997.78;29395;233;63009;-65
2024/02/01 01:29:00;;;;;;;0.62;0.62;;;;;;;7.20;96.76;97997.78;29395;235;63004;-65
2024/02/01 01:29:35;;;;;;;0.60;0.60;;;;;;;7.21;96.84;98004.84;29395;245;63008;-63
2024/02/01 01:30:11;;;;;;;0.60;0.60;;;;;;;7.20;96.68;98000.50;29395;280;63005;-66
2024/02/01 01:30:42;;;;;;;0.50;0.50;;;;;;;7.19;96.97;98000.75;29395;212;63009;-64
2024/02/01 01:31:14;;;;;;;1.50;1.50;;;;;;;7.18;96.91;97997.22;29394;202;64005;-66
2024/02/01 01:31:46;;;;;;;0.60;0.60;;;;;;;7.18;97.02;98005.31;29395;233;63009;-66
2024/02/01 01:32:18;;;;;;;0.50;0.50;;;;;;;7.17;96.58;98003.69;29395;225;63005;-64
2024/02/01 01:32:52;;;;;;;0.52;0.52;;;;;;;7.18;96.82;98004.50;29395;197;63009;-64
2024/02/01 01:33:25;;;;;;;0.60;0.60;;;;;;;7.17;96.85;98000.97;29394;214;64005;-64
2024/02/01 01:33:56;;;;;;;0.57;0.57;;;;;;;7.17;96.75;98006.38;29395;279;63009;-67
2024/02/01 01:34:28;;;;;;;0.60;0.60;;;;;;;7.16;96.73;98002.03;29395;261;63013;-63
2024/02/01 01:35:00;;;;;;;0.50;0.50;;;;;;;7.16;96.74;98002.03;29395;215;63009;-67
2024/02/01 01:35:31;;;;;;;0.50;0.50;;;;;;;7.17;96.63;98014.47;29395;222;63004;-67
2024/02/01 01:36:03;;;;;;;0.50;0.50;;;;;;;7.15;96.94;98008.50;29395;227;63009;-65
2024/02/01 01:36:35;;;;;;;0.60;0.60;;;;;;;7.15;96.89;98000.41;29395;228;63004;-57
2024/02/01 01:37:06;;;;;;;0.50;0.50;;;;;;;7.14;97.07;97998.75;29395;284;63008;-63
2024/02/01 01:37:38;;;;;;;0.60;0.60;;;;;;;7.15;96.65;97996.87;29395;230;63005;-65
2024/02/01 01:38:09;;;;;;;0.60;0.60;;;;;;;7.16;96.90;97995.81;29395;271;63009;-64
2024/02/01 01:38:41;;;;;;;0.50;0.50;;;;;;;7.16;96.71;97996.66;29394;221;64005;-64
2024/02/01 01:39:12;;;;;;;0.60;0.60;;;;;;;7.17;97.07;97990.19;29395;199;63009;-66
2024/02/01 01:39:43;;;;;;;0.50;0.50;;;;;;;7.17;96.94;97992.88;29395;219;63005;-65
2024/02/01 01:40:16;;;;;;;0.50;0.50;;;;;;;7.16;96.73;97991.25;29395;264;63009;-67
2024/02/01 01:40:48;;;;;;;0.60;0.60;;;;;;;7.16;96.67;97993.94;29395;234;63005;-65
2024/02/01 01:41:19;;;;;;;0.50;0.50;;;;;;;7.16;96.94;97991.25;29395;203;63009;-66
2024/02/01 01:41:52;;;;;;;0.60;0.60;;;;;;;7.15;96.87;97997.69;29395;260;63004;-56
2024/02/01 01:42:25;;;;;;;0.60;0.60;;;;;;;7.15;97.18;98000.41;29395;216;63009;-65
2024/02/01 01:42:57;;;;;;;0.50;0.50;;;;;;;7.13;96.99;97997.13;29395;224;63004;-58
2024/02/01 01:43:28;;;;;;;0.60;0.60;;;;;;;7.13;97.26;97997.13;29395;229;63009;-64
2024/02/01 01:44:02;;;;;;;0.57;0.57;;;;;;;7.12;97.51;98000.06;29394;210;64004;-64
2024/02/01 01:44:33;;;;;;;0.50;0.50;;;;;;;7.11;97.35;97991.16;29395;224;63008;-66
2024/02/01 01:45:07;;;;;;;0.60;0.60;;;;;;;7.11;97.62;97995.72;29394;221;64005;-67
2024/02/01 01:45:38;;;;;;;0.50;0.50;;;;;;;7.10;97.59;97996.78;29395;242;63005;-65
2024/02/01 01:46:09;;;;;;;0.60;0.60;;;;;;;7.10;97.27;98003.00;29395;204;63005;-65
2024/02/01 01:46:41;;;;;;;0.50;0.50;;;;;;;7.09;97.75;98004.06;29394;251;64009;-65
2024/02/01 01:47:13;;;;;;;0.50;0.50;;;;;;;7.09;97.38;98001.38;29395;254;63009;-57
2024/02/01 01:47:45;;;;;;;0.50;0.50;;;;;;;7.08;97.73;98005.13;29395;214;63009;-56
2024/02/01 01:48:16;;;;;;;0.50;0.50;;;;;;;7.07;97.51;97993.53;29395;243;63005;-65
2024/02/01 01:48:51;;;;;;;0.52;0.52;;;;;;;7.06;97.84;97991.88;29395;331;63009;-66
2024/02/01 01:49:23;;;;;;;0.60;0.60;;;;;;;7.07;97.76;97993.53;29395;196;63004;-66
2024/02/01 01:49:55;;;;;;;0.50;0.50;;;;;;;7.06;97.69;97991.06;29395;229;63009;-67
2024/02/01 01:50:27;;;;;;;0.60;0.60;;;;;;;7.06;97.93;97991.06;29394;197;64004;-66
2024/02/01 01:51:00;;;;;;;0.60;0.60;;;;;;;7.06;97.74;97991.06;29395;283;63009;-65
2024/02/01 01:51:33;;;;;;;0.52;0.52;;;;;;;7.06;97.60;97985.66;29395;197;63011;-64
2024/02/01 01:52:06;;;;;;;0.60;0.60;;;;;;;7.07;97.65;97990.00;29395;209;63008;-63
2024/02/01 01:52:39;;;;;;;1.12;1.12;;;;;;;7.08;97.98;97988.94;29395;235;63010;-66
2024/02/01 01:53:12;;;;;;;0.60;0.60;;;;;;;7.09;97.74;97992.47;29395;211;63016;-64
2024/02/01 01:53:48;;;;;;;0.60;0.60;;;;;;;7.09;97.30;97993.28;29395;243;63010;-63
2024/02/01 01:54:23;;;;;;;0.60;0.60;;;;;;;7.09;97.39;97995.97;29395;229;63009;-64
2024/02/01 01:54:58;;;;;;;0.50;0.50;;;;;;;7.06;97.54;97993.75;29395;231;63005;-56
2024/02/01 01:55:30;;;;;;;0.50;0.50;;;;;;;7.04;97.70;97998.56;29394;232;64009;-64
2024/02/01 01:56:02;;;;;;;0.60;0.60;;;;;;;7.02;97.80;98006.09;29395;227;63005;-66
2024/02/01 01:56:37;;;;;;;0.60;0.60;;;;;;;7.00;97.88;97998.25;29395;296;63009;-64
2024/02/01 01:57:09;;;;;;;0.60;0.60;;;;;;;7.00;97.50;98009.03;29395;213;63004;-64
2024/02/01 01:57:41;;;;;;;0.60;0.60;;;;;;;7.00;97.61;98008.22;29395;204;63019;-66
2024/02/01 01:58:14;;;;;;;0.50;0.50;;;;;;;7.00;97.49;98008.22;29395;214;63004;-64
2024/02/01 01:58:49;;;;;;;4.20;3.90;;;;;;;7.00;97.47;98013.63;29394;222;64009;-67
2024/02/01 01:59:25;;;;;;;0.50;0.50;;;;;;;7.01;97.77;98005.28;29395;224;63004;-66
2024/02/01 02:00:01;;;;;;;0.60;0.60;;;;;;;7.02;97.37;98006.09;29395;213;63008;-68
2024/02/01 02:00:34;;;;;;;0.60;0.60;;;;;;;7.02;97.33;98011.50;29395;270;63005;-65
2024/02/01 02:01:08;;;;;;;0.50;0.50;;;;;;;7.03;97.52;98008.56;29395;224;63009;-65
2024/02/01 02:01:41;;;;;;;0.60;0.60;;;;;;;7.03;97.15;98008.56;29395;227;63005;-65
2024/02/01 02:02:13;;;;;;;0.50;0.50;;;;;;;7.05;97.42;98006.44;29395;253;63009;-65
2024/02/01 02:02:48;;;;;;;0.60;0.60;;;;;;;7.05;97.10;98005.63;29395;263;63005;-65
2024/02/01 02:03:31;;;;;;;0.60;0.60;;;;;;;7.06;97.34;98008.06;29395;214;63009;-66
2024/02/01 02:04:05;;;;;;;;;;;;;;;7.06;97.37;97999.16;29996;983;6004;-65
2024/02/01 02:04:37;;;;;;;0.60;0.60;;;;;;;7.07;96.99;98003.50;29400;225;63000;-63
2024/02/01 02:05:10;;;;;;;0.50;0.50;;;;;;;7.07;97.24;98006.19;29395;223;63004;-65
2024/02/01 02:05:41;;;;;;;0.55;0.55;;;;;;;7.07;97.27;98004.31;29395;206;63000;-65
2024/02/01 02:06:12;;;;;;;0.50;0.50;;;;;;;7.07;97.45;98003.50;29395;197;63004;-64
2024/02/01 02:06:44;;;;;;;0.50;0.50;;;;;;;7.07;97.57;98003.50;29395;203;63000;-66
2024/02/01 02:07:16;;;;;;;0.60;0.60;;;;;;;7.06;97.53;98002.69;29395;221;63004;-66
2024/02/01 02:07:47;;;;;;;0.60;0.60;;;;;;;7.05;97.63;98006.44;29395;207;63001;-66
2024/02/01 02:08:21;;;;;;;0.50;0.50;;;;;;;7.05;97.43;98005.63;29395;213;63005;-64
2024/02/01 02:08:53;;;;;;;0.50;0.50;;;;;;;7.06;97.67;98004.56;29395;202;63001;-56
2024/02/01 02:09:25;;;;;;;0.60;0.60;;;;;;;7.05;97.68;98005.63;29394;214;64009;-65
2024/02/01 02:10:03;;;;;;;0.60;0.60;;;;;;;7.06;97.69;98001.84;29395;214;63005;-65
2024/02/01 02:10:36;;;;;;;0.60;0.60;;;;;;;7.07;97.32;97998.09;29395;203;63009;-67
2024/02/01 02:11:09;;;;;;;0.50;0.50;;;;;;;7.07;97.58;98003.50;29395;256;63005;-65
2024/02/01 02:11:44;;;;;;;0.60;0.60;;;;;;;7.07;97.35;97995.41;29395;256;63009;-67
2024/02/01 02:12:16;;;;;;;0.50;0.50;;;;;;;7.07;97.46;97996.22;29395;275;63004;-57
2024/02/01 02:12:47;;;;;;;0.50;0.50;;;;;;;7.08;97.34;97991.63;29395;236;63009;-66
2024/02/01 02:13:18;;;;;;;0.50;0.50;;;;;;;7.08;97.40;97986.25;29395;210;63004;-56
2024/02/01 02:13:51;;;;;;;0.50;0.50;;;;;;;7.09;97.32;97984.34;29395;202;63009;-64
2024/02/01 02:14:23;;;;;;;0.50;0.50;;;;;;;7.10;97.03;97986.00;29395;215;63004;-65
2024/02/01 02:15:05;;;;;;;0.60;0.60;;;;;;;7.13;97.02;97980.13;29416;208;64009;-56
2024/02/01 02:15:40;;;;;;;0.50;0.50;;;;;;;7.14;96.62;97982.56;29394;222;64005;-64
2024/02/01 02:16:12;;;;;;;0.60;0.60;;;;;;;7.14;96.42;97982.56;29395;246;63009;-56
2024/02/01 02:16:44;;;;;;;0.57;0.57;;;;;;;7.14;96.68;97982.56;29395;218;63005;-56
2024/02/01 02:17:18;;;;;;;0.60;0.60;;;;;;;7.12;96.81;97976.59;29395;300;63005;-55
2024/02/01 02:17:50;;;;;;;0.50;0.50;;;;;;;7.12;96.58;97987.41;29395;224;63005;-63
2024/02/01 02:18:22;;;;;;;0.50;0.50;;;;;;;7.12;96.74;97982.00;29395;245;63009;-56
2024/02/01 02:18:53;;;;;;;0.50;0.50;;;;;;;7.12;96.77;97979.28;29395;244;63004;-63
2024/02/01 02:19:25;;;;;;;0.50;0.50;;;;;;;7.12;96.62;97979.28;29395;199;63009;-56
2024/02/01 02:20:16;;;;;;;0.50;0.50;;;;;;;7.11;96.95;97983.06;29395;218;63004;-66
2024/02/01 02:20:50;;;;;;;0.60;0.60;;;;;;;7.10;96.60;97981.41;29416;241;64009;-66
2024/02/01 02:21:22;;;;;;;0.50;0.50;;;;;;;7.10;97.27;97984.13;29395;252;63004;-65
2024/02/01 02:21:56;;;;;;;0.60;0.60;;;;;;;7.09;96.98;97985.19;29395;213;63008;-57
2024/02/01 02:22:29;;;;;;;0.60;0.60;;;;;;;7.08;97.14;97986.25;29395;204;63004;-65
2024/02/01 02:23:01;;;;;;;0.50;0.50;;;;;;;7.07;96.97;97987.31;29395;210;63024;-66
2024/02/01 02:23:34;;;;;;;0.60;0.60;;;;;;;7.07;97.32;97990.00;29395;209;63005;-57
2024/02/01 02:24:06;;;;;;;0.60;0.60;;;;;;;7.05;97.19;97990.25;29395;231;63009;-66
2024/02/01 02:24:41;;;;;;;0.60;0.60;;;;;;;7.06;97.44;97985.66;29395;207;63005;-66
2024/02/01 02:25:13;;;;;;;0.50;0.50;;;;;;;7.05;97.58;97982.16;29395;235;63009;-66
2024/02/01 02:25:48;;;;;;;0.50;0.50;;;;;;;7.06;97.60;97986.47;29395;251;63000;-65
2024/02/01 02:26:19;;;;;;;0.55;0.55;;;;;;;7.07;97.74;97992.69;29394;264;64009;-56
2024/02/01 02:26:50;;;;;;;0.52;0.52;;;;;;;7.06;97.80;97989.19;29395;221;63004;-65
2024/02/01 02:27:22;;;;;;;0.60;0.60;;;;;;;7.06;97.73;97993.75;29395;212;63015;-65
2024/02/01 02:27:53;;;;;;;0.50;0.50;;;;;;;7.06;97.94;97991.06;29395;197;63004;-65
2024/02/01 02:28:24;;;;;;;0.60;0.60;;;;;;;7.05;97.73;97989.41;29395;214;63009;-64
2024/02/01 02:28:56;;;;;;;0.50;0.50;;;;;;;7.05;98.05;97989.41;29395;202;63004;-56
2024/02/01 02:29:27;;;;;;;0.60;0.60;;;;;;;7.05;97.60;97995.63;29395;203;63019;-63
2024/02/01 02:29:59;;;;;;;0.50;0.50;;;;;;;7.06;97.89;98001.84;29395;239;63005;-58
2024/02/01 02:30:31;;;;;;;0.50;0.50;;;;;;;7.08;98.08;98005.13;29395;204;63009;-63
2024/02/01 02:31:03;;;;;;;0.50;0.50;;;;;;;7.11;97.78;97999.25;29395;239;63009;-65
2024/02/01 02:31:36;;;;;;;0.50;0.50;;;;;;;7.14;97.60;98009.56;29394;228;64009;-65
2024/02/01 02:32:07;;;;;;;0.50;0.50;;;;;;;7.15;97.55;98007.69;29395;217;63009;-66
2024/02/01 02:32:39;;;;;;;0.50;0.50;;;;;;;7.14;97.24;97998.75;29395;218;63009;-63
2024/02/01 02:33:10;;;;;;;0.50;0.50;;;;;;;7.16;97.17;98001.22;29395;236;63009;-64
2024/02/01 02:33:42;;;;;;;0.50;0.50;;;;;;;7.16;96.91;98006.63;29395;216;63009;-64
2024/02/01 02:34:16;;;;;;;0.50;0.50;;;;;;;7.17;97.07;98002.84;29395;232;63004;-66
2024/02/01 02:34:47;;;;;;;0.50;0.50;;;;;;;7.19;96.89;98000.75;29395;262;63009;-56
2024/02/01 02:35:19;;;;;;;0.50;0.50;;;;;;;7.20;96.71;98008.59;29395;241;63004;-63
2024/02/01 02:35:51;;;;;;;0.50;0.50;;;;;;;7.22;96.39;98008.34;29394;260;64009;-65
2024/02/01 02:36:22;;;;;;;0.60;0.60;;;;;;;7.26;95.62;98010.31;29395;277;63004;-65
2024/02/01 02:36:53;;;;;;;0.60;0.60;;;;;;;7.29;94.96;98012.50;29395;275;63009;-65